createdAt,value
2019-04-16T00:01:35.378Z,101279.15
2019-04-16T00:04:25.010Z,101274.88
2019-04-16T00:07:11.676Z,101267.08
2019-04-16T00:10:08.563Z,101270.59
2019-04-16T00:12:48.125Z,101267.20
2019-04-16T00:15:15.291Z,101265.02
2019-04-16T00:17:44.406Z,101264.59
2019-04-16T00:20:11.336Z,101262.82
2019-04-16T00:22:45.300Z,101256.74
2019-04-16T00:25:12.368Z,101259.38
2019-04-16T00:27:39.965Z,101259.40
2019-04-16T00:30:07.550Z,101255.05
2019-04-16T00:32:38.052Z,101253.78
2019-04-16T00:35:04.235Z,101248.53
2019-04-16T00:37:31.458Z,101247.27
2019-04-16T00:39:58.504Z,101247.23
2019-04-16T00:42:25.793Z,101243.35
2019-04-16T00:44:53.660Z,101247.34
2019-04-16T00:47:22.074Z,101246.44
2019-04-16T00:49:49.322Z,101243.33
2019-04-16T00:52:16.344Z,101244.24
2019-04-16T00:54:43.651Z,101246.01
2019-04-16T00:57:10.758Z,101245.61
2019-04-16T00:59:38.611Z,101240.45
2019-04-16T01:02:06.273Z,101241.69
2019-04-16T01:04:33.292Z,101239.61
2019-04-16T01:07:00.681Z,101238.31
2019-04-16T01:09:28.559Z,101238.33
2019-04-16T01:11:56.746Z,101230.16
2019-04-16T01:14:24.291Z,101228.85
2019-04-16T01:16:52.933Z,101224.55
2019-04-16T01:19:19.938Z,101226.69
2019-04-16T01:21:47.011Z,101223.31
2019-04-16T01:24:14.060Z,101226.33
2019-04-16T01:26:41.117Z,101221.56
2019-04-16T01:29:12.634Z,101225.83
2019-04-16T01:32:12.145Z,101215.95
2019-04-16T01:34:57.798Z,101221.56
2019-04-16T01:37:43.550Z,101216.37
2019-04-16T01:40:13.010Z,101216.84
2019-04-16T01:42:40.152Z,101218.62
2019-04-16T01:45:07.268Z,101218.59
2019-04-16T01:47:37.117Z,101213.42
2019-04-16T01:50:04.041Z,101215.55
2019-04-16T01:52:31.155Z,101216.41
2019-04-16T01:54:58.653Z,101219.09
2019-04-16T01:57:28.362Z,101218.68
2019-04-16T01:59:55.132Z,101217.41
2019-04-16T02:02:22.364Z,101215.63
2019-04-16T02:04:52.068Z,101212.20
2019-04-16T02:07:18.640Z,101208.73
2019-04-16T02:09:45.785Z,101215.71
2019-04-16T02:12:14.114Z,101214.91
2019-04-16T02:14:41.204Z,101208.38
2019-04-16T02:17:08.985Z,101207.84
2019-04-16T02:19:36.064Z,101187.16
2019-04-16T02:22:03.139Z,101214.41
2019-04-16T02:24:30.186Z,101203.95
2019-04-16T02:26:57.481Z,101202.70
2019-04-16T02:29:30.514Z,101208.38
2019-04-16T02:31:57.563Z,101218.34
2019-04-16T02:34:24.666Z,101209.59
2019-04-16T02:36:57.445Z,101208.77
2019-04-16T02:39:31.798Z,101205.30
2019-04-16T02:41:57.029Z,101207.09
2019-04-16T02:44:21.546Z,101197.50
2019-04-16T02:46:48.583Z,101201.92
2019-04-16T02:49:15.790Z,101194.08
2019-04-16T02:51:51.201Z,101194.02
2019-04-16T02:54:49.606Z,101189.30
2019-04-16T02:57:39.524Z,101190.59
2019-04-16T03:00:18.557Z,101176.25
2019-04-16T03:02:58.031Z,101174.96
2019-04-16T03:05:30.590Z,101176.75
2019-04-16T03:08:01.543Z,101170.27
2019-04-16T03:10:27.993Z,101174.58
2019-04-16T03:12:55.442Z,101171.94
2019-04-16T03:15:42.066Z,101167.27
2019-04-16T03:18:11.687Z,101168.14
2019-04-16T03:20:38.560Z,101167.28
2019-04-16T03:23:06.660Z,101163.88
2019-04-16T03:25:33.800Z,101165.97
2019-04-16T03:28:00.923Z,101165.16
2019-04-16T03:30:27.850Z,101166.91
2019-04-16T03:32:55.070Z,101153.44
2019-04-16T03:35:25.007Z,101158.25
2019-04-16T03:37:50.962Z,101142.66
2019-04-16T03:40:18.891Z,101152.66
2019-04-16T03:42:46.829Z,101149.27
2019-04-16T03:45:14.072Z,101144.91
2019-04-16T03:47:41.209Z,101146.67
2019-04-16T03:50:08.623Z,101139.77
2019-04-16T03:52:37.533Z,101131.55
2019-04-16T03:55:04.800Z,101136.33
2019-04-16T03:57:33.217Z,101129.00
2019-04-16T04:00:01.029Z,101127.69
2019-04-16T04:02:28.116Z,101130.31
2019-04-16T04:04:57.584Z,101130.33
2019-04-16T04:07:25.713Z,101127.30
2019-04-16T04:09:54.524Z,101125.98
2019-04-16T04:12:22.078Z,101129.03
2019-04-16T04:14:51.279Z,101126.88
2019-04-16T04:17:18.056Z,101112.61
2019-04-16T04:19:46.138Z,101121.25
2019-04-16T04:22:13.906Z,101123.88
2019-04-16T04:24:40.885Z,101123.02
2019-04-16T04:27:12.836Z,101115.69
2019-04-16T04:29:36.874Z,101113.93
2019-04-16T04:32:04.290Z,101116.94
2019-04-16T04:34:31.771Z,101116.52
2019-04-16T04:36:59.698Z,101115.25
2019-04-16T04:39:27.197Z,101118.28
2019-04-16T04:41:56.443Z,101120.87
2019-04-16T04:44:24.570Z,101123.42
2019-04-16T04:46:51.515Z,101119.98
2019-04-16T04:49:18.762Z,101123.05
2019-04-16T04:51:45.713Z,101117.87
2019-04-16T04:54:12.711Z,101121.77
2019-04-16T04:56:40.055Z,101119.16
2019-04-16T04:59:07.229Z,101122.60
2019-04-16T05:01:34.427Z,101123.48
2019-04-16T05:04:24.408Z,101128.26
2019-04-16T05:06:57.287Z,101123.45
2019-04-16T05:09:24.510Z,101125.20
2019-04-16T05:11:51.506Z,101129.48
2019-04-16T05:14:18.596Z,101130.36
2019-04-16T05:16:46.692Z,101126.88
2019-04-16T05:19:15.375Z,101124.73
2019-04-16T05:21:42.779Z,101124.70
2019-04-16T05:24:09.754Z,101128.13
2019-04-16T05:26:37.342Z,101132.48
2019-04-16T05:29:16.328Z,101128.55
2019-04-16T05:31:41.641Z,101121.15
2019-04-16T05:34:09.296Z,101129.80
2019-04-16T05:36:36.546Z,101126.77
2019-04-16T05:39:06.181Z,101134.10
2019-04-16T05:41:33.137Z,101136.27
2019-04-16T05:44:01.769Z,101140.59
2019-04-16T05:46:29.500Z,101131.03
2019-04-16T05:49:17.448Z,101137.08
2019-04-16T05:51:44.798Z,101135.79
2019-04-16T05:54:41.499Z,101133.55
2019-04-16T05:57:11.750Z,101139.66
2019-04-16T05:59:38.903Z,101132.69
2019-04-16T06:02:17.894Z,101134.38
2019-04-16T06:04:43.066Z,101101.09
2019-04-16T06:07:10.036Z,101132.57
2019-04-16T06:09:37.156Z,101128.66
2019-04-16T06:12:05.943Z,101132.41
2019-04-16T06:14:37.484Z,101129.05
2019-04-16T06:17:32.149Z,101128.59
2019-04-16T06:20:33.554Z,101125.89
2019-04-16T06:23:26.264Z,101119.29
2019-04-16T06:26:02.799Z,101120.17
2019-04-16T06:28:57.120Z,101124.08
2019-04-16T06:31:29.985Z,101128.80
2019-04-16T06:34:15.485Z,101123.08
2019-04-16T06:36:47.174Z,101125.95
2019-04-16T06:39:36.433Z,101116.52
2019-04-16T06:42:09.697Z,101124.16
2019-04-16T06:44:51.532Z,101129.34
2019-04-16T06:47:42.075Z,101128.44
2019-04-16T06:50:31.870Z,101130.16
2019-04-16T06:53:14.629Z,101131.04
2019-04-16T06:55:59.477Z,101131.40
2019-04-16T06:58:50.151Z,101129.18
2019-04-16T07:01:27.974Z,101134.69
2019-04-16T07:03:59.530Z,101131.58
2019-04-16T07:06:44.754Z,101131.14
2019-04-16T07:09:41.441Z,101130.49
2019-04-16T07:12:06.188Z,101131.04
2019-04-16T07:14:36.006Z,101132.31
2019-04-16T07:17:02.472Z,101130.11
2019-04-16T07:19:29.759Z,101132.69
2019-04-16T07:21:56.769Z,101128.20
2019-04-16T07:24:24.000Z,101121.56
2019-04-16T07:26:56.200Z,101121.38
2019-04-16T07:29:25.209Z,101117.50
2019-04-16T07:32:01.075Z,101118.17
2019-04-16T07:34:35.045Z,101118.30
2019-04-16T07:37:20.256Z,101116.02
2019-04-16T07:40:14.653Z,101117.32
2019-04-16T07:42:52.428Z,101121.47
2019-04-16T07:45:36.109Z,101114.00
2019-04-16T07:48:32.614Z,101109.62
2019-04-16T07:51:17.878Z,101111.16
2019-04-16T07:54:18.783Z,101104.56
2019-04-16T07:56:48.430Z,101106.66
2019-04-16T07:59:15.404Z,101109.52
2019-04-16T08:01:44.108Z,101103.88
2019-04-16T08:04:11.260Z,101096.69
2019-04-16T08:06:38.291Z,101093.08
2019-04-16T08:09:06.534Z,101091.91
2019-04-16T08:11:33.628Z,101098.03
2019-04-16T08:14:00.786Z,101096.38
2019-04-16T08:16:27.785Z,101089.05
2019-04-16T08:18:54.724Z,101087.86
2019-04-16T08:21:22.760Z,101092.17
2019-04-16T08:23:55.866Z,101089.38
2019-04-16T08:26:22.863Z,101096.54
2019-04-16T08:28:51.692Z,101092.95
2019-04-16T08:31:22.057Z,101091.91
2019-04-16T08:33:49.034Z,101089.46
2019-04-16T08:36:16.118Z,101089.27
2019-04-16T08:38:43.396Z,101084.95
2019-04-16T08:41:12.723Z,101088.00
2019-04-16T08:43:39.290Z,101084.52
2019-04-16T08:46:10.240Z,101084.55
2019-04-16T08:48:35.961Z,101085.21
2019-04-16T08:51:05.235Z,101076.84
2019-04-16T08:53:31.982Z,101084.39
2019-04-16T08:55:59.594Z,101073.82
2019-04-16T08:58:26.515Z,101071.85
2019-04-16T09:00:53.485Z,101074.00
2019-04-16T09:03:21.779Z,101070.41
2019-04-16T09:05:48.763Z,101066.02
2019-04-16T09:08:30.332Z,101064.41
2019-04-16T09:11:02.752Z,101058.32
2019-04-16T09:13:29.879Z,101058.45
2019-04-16T09:15:56.839Z,101058.42
2019-04-16T09:18:42.757Z,101058.80
2019-04-16T09:21:11.498Z,101056.50
2019-04-16T09:23:38.796Z,101048.67
2019-04-16T09:26:22.623Z,101046.34
2019-04-16T09:29:09.573Z,101041.72
2019-04-16T09:31:37.897Z,101041.91
2019-04-16T09:34:39.604Z,101037.41
2019-04-16T09:37:25.499Z,101031.08
2019-04-16T09:40:17.885Z,101034.34
2019-04-16T09:42:39.659Z,101034.02
2019-04-16T09:45:08.932Z,101036.14
2019-04-16T09:47:36.206Z,101032.38
2019-04-16T09:50:09.800Z,101042.09
2019-04-16T09:52:32.699Z,101038.00
2019-04-16T09:54:59.986Z,101035.51
2019-04-16T09:57:30.870Z,101034.02
2019-04-16T09:59:59.086Z,101025.47
2019-04-16T10:02:29.093Z,101032.50
2019-04-16T10:04:57.971Z,101028.17
2019-04-16T10:07:25.115Z,101023.37
2019-04-16T10:09:54.468Z,101017.84
2019-04-16T10:12:20.987Z,101024.73
2019-04-16T10:14:47.994Z,101017.02
2019-04-16T10:17:15.126Z,101017.00
2019-04-16T10:19:43.240Z,101018.05
2019-04-16T10:22:11.238Z,101013.43
2019-04-16T10:25:16.258Z,101016.09
2019-04-16T10:28:04.913Z,101010.44
2019-04-16T10:30:40.583Z,101009.21
2019-04-16T10:33:07.709Z,101003.06
2019-04-16T10:35:35.291Z,100994.84
2019-04-16T10:38:13.940Z,100993.18
2019-04-16T10:40:43.715Z,100993.27
2019-04-16T10:43:43.873Z,100992.81
2019-04-16T10:46:09.782Z,100986.95
2019-04-16T10:48:55.291Z,100988.88
2019-04-16T10:51:48.165Z,100987.91
2019-04-16T10:54:38.380Z,100987.67
2019-04-16T10:57:29.193Z,100990.34
2019-04-16T11:00:22.141Z,100989.03
2019-04-16T11:02:57.690Z,100985.69
2019-04-16T11:05:38.953Z,100980.36
2019-04-16T11:08:07.534Z,100982.80
2019-04-16T11:10:35.152Z,100975.02
2019-04-16T11:13:04.177Z,100945.77
2019-04-16T11:15:31.481Z,100973.00
2019-04-16T11:17:58.781Z,100976.10
2019-04-16T11:20:25.795Z,100958.72
2019-04-16T11:22:52.774Z,100967.52
2019-04-16T11:25:19.821Z,100966.25
2019-04-16T11:27:46.964Z,100970.89
2019-04-16T11:30:28.496Z,100959.17
2019-04-16T11:32:55.591Z,100958.52
2019-04-16T11:35:23.187Z,100957.55
2019-04-16T11:37:50.404Z,100949.66
2019-04-16T11:40:17.581Z,100940.66
2019-04-16T11:42:44.622Z,100941.20
2019-04-16T11:45:13.315Z,100946.48
2019-04-16T11:47:40.292Z,100950.06
2019-04-16T11:50:07.386Z,100955.13
2019-04-16T11:52:34.355Z,100946.16
2019-04-16T11:55:01.435Z,100947.27
2019-04-16T11:57:29.358Z,100960.98
2019-04-16T12:00:06.529Z,100951.75
2019-04-16T12:02:31.552Z,100950.19
2019-04-16T12:05:18.212Z,100949.13
2019-04-16T12:08:05.173Z,100952.94
2019-04-16T12:10:58.075Z,100971.27
2019-04-16T12:13:31.681Z,100961.89
2019-04-16T12:16:25.434Z,100951.22
2019-04-16T12:19:21.353Z,100954.80
2019-04-16T12:22:17.580Z,100953.02
2019-04-16T12:25:12.386Z,100948.39
2019-04-16T12:28:06.457Z,100942.64
2019-04-16T12:30:59.314Z,100951.89
2019-04-16T12:33:36.219Z,100953.50
2019-04-16T12:36:29.428Z,100943.30
2019-04-16T12:39:19.832Z,100951.89
2019-04-16T12:41:55.369Z,100945.31
2019-04-16T12:44:27.282Z,100942.27
2019-04-16T12:47:22.446Z,100944.67
2019-04-16T12:50:03.756Z,100934.05
2019-04-16T12:52:51.903Z,100935.23
2019-04-16T12:55:32.529Z,100931.96
2019-04-16T12:58:09.849Z,100932.37
2019-04-16T13:01:03.871Z,100937.08
2019-04-16T13:03:53.473Z,100944.24
2019-04-16T13:06:37.955Z,100932.64
2019-04-16T13:09:33.596Z,100927.45
2019-04-16T13:12:26.923Z,100927.59
2019-04-16T13:15:12.344Z,100923.94
2019-04-16T13:18:01.926Z,100923.95
2019-04-16T13:20:47.278Z,100922.97
2019-04-16T13:23:32.873Z,100920.02
2019-04-16T13:26:19.475Z,100932.95
2019-04-16T13:28:46.890Z,100931.92
2019-04-16T13:31:13.894Z,100926.72
2019-04-16T13:33:43.580Z,100923.27
2019-04-16T13:36:10.131Z,100921.79
2019-04-16T13:38:40.440Z,100920.40
2019-04-16T13:41:08.242Z,100930.97
2019-04-16T13:43:40.635Z,100923.91
2019-04-16T13:46:07.949Z,100931.41
2019-04-16T13:48:59.757Z,100921.55
2019-04-16T13:51:26.757Z,100917.25
2019-04-16T13:54:00.844Z,100916.50
2019-04-16T13:56:31.134Z,100918.38
2019-04-16T13:59:16.595Z,100913.09
2019-04-16T14:01:48.571Z,100903.23
2019-04-16T14:04:15.603Z,100898.48
2019-04-16T14:06:45.995Z,100896.52
2019-04-16T14:09:12.072Z,100907.92
2019-04-16T14:11:39.270Z,100901.77
2019-04-16T14:14:07.554Z,100897.29
2019-04-16T14:16:35.399Z,100905.11
2019-04-16T14:19:05.941Z,100904.22
2019-04-16T14:21:31.242Z,100901.13
2019-04-16T14:23:58.696Z,100908.72
2019-04-16T14:26:25.768Z,100909.56
2019-04-16T14:28:52.749Z,100900.84
2019-04-16T14:31:21.926Z,100897.69
2019-04-16T14:34:03.038Z,100902.83
2019-04-16T14:36:30.083Z,100893.35
2019-04-16T14:39:00.717Z,100895.38
2019-04-16T14:41:27.774Z,100896.05
2019-04-16T14:44:02.410Z,100888.06
2019-04-16T14:46:29.853Z,100853.70
2019-04-16T14:48:56.839Z,100890.89
2019-04-16T14:51:23.913Z,100892.81
2019-04-16T14:54:16.321Z,100889.00
2019-04-16T14:56:48.523Z,100886.84
2019-04-16T14:59:37.965Z,100887.80
2019-04-16T15:05:27.706Z,100888.81
2019-04-16T15:08:14.317Z,100886.95
2019-04-16T15:11:03.797Z,100888.56
2019-04-16T15:13:37.079Z,100894.16
2019-04-16T15:16:26.431Z,100885.00
2019-04-16T15:19:12.013Z,100895.10
2019-04-16T15:21:56.902Z,100885.28
2019-04-16T15:24:43.463Z,100884.50
2019-04-16T15:27:37.349Z,100878.78
2019-04-16T15:30:12.362Z,100879.68
2019-04-16T15:32:57.908Z,100888.52
2019-04-16T15:35:35.416Z,100882.62
2019-04-16T15:38:22.120Z,100878.82
2019-04-16T15:40:50.128Z,100888.23
2019-04-16T15:43:36.806Z,100886.59
2019-04-16T15:46:27.026Z,100887.86
2019-04-16T15:49:12.109Z,100888.06
2019-04-16T15:51:50.625Z,100885.58
2019-04-16T15:54:33.102Z,100889.78
2019-04-16T15:57:18.800Z,100884.02
2019-04-16T15:59:57.557Z,100885.31
2019-04-16T16:02:45.323Z,100886.08
2019-04-16T16:05:28.802Z,100890.78
2019-04-16T16:08:14.448Z,100891.63
2019-04-16T16:10:46.558Z,100896.44
2019-04-16T16:13:13.666Z,100890.99
2019-04-16T16:15:43.274Z,100890.16
2019-04-16T16:18:10.443Z,100899.55
2019-04-16T16:20:38.563Z,100868.53
2019-04-16T16:23:05.565Z,100899.80
2019-04-16T16:25:32.490Z,100891.84
2019-04-16T16:27:59.627Z,100899.62
2019-04-16T16:30:26.675Z,100890.44
2019-04-16T16:32:53.851Z,100900.21
2019-04-16T16:35:21.381Z,100899.95
2019-04-16T16:37:48.494Z,100901.55
2019-04-16T16:40:16.180Z,100895.98
2019-04-16T16:42:43.491Z,100894.41
2019-04-16T16:45:11.115Z,100898.95
2019-04-16T16:47:40.108Z,100904.20
2019-04-16T16:50:10.415Z,100905.36
2019-04-16T16:52:53.369Z,100909.14
2019-04-16T16:55:33.804Z,100911.98
2019-04-16T16:58:09.202Z,100914.27
2019-04-16T17:00:47.683Z,100910.27
2019-04-16T17:03:37.802Z,100906.27
2019-04-16T17:06:06.708Z,100917.83
2019-04-16T17:08:33.698Z,100918.75
2019-04-16T17:11:14.706Z,100913.45
2019-04-16T17:13:29.651Z,100924.77
2019-04-16T17:15:56.952Z,100918.45
2019-04-16T17:18:23.943Z,100920.38
2019-04-16T17:20:50.919Z,100926.98
2019-04-16T17:23:17.901Z,100919.05
2019-04-16T17:25:45.096Z,100932.47
2019-04-16T17:28:12.163Z,100927.03
2019-04-16T17:30:39.569Z,100942.88
2019-04-16T17:33:07.053Z,100931.23
2019-04-16T17:35:34.134Z,100937.17
2019-04-16T17:38:03.662Z,100933.72
2019-04-16T17:40:46.239Z,100946.33
2019-04-16T17:43:18.818Z,100954.27
2019-04-16T17:45:56.561Z,100952.64
2019-04-16T17:48:38.907Z,100958.87
2019-04-16T17:51:25.501Z,100965.80
2019-04-16T17:54:05.650Z,100970.94
2019-04-16T17:56:56.352Z,100966.91
2019-04-16T17:59:31.863Z,100973.36
2019-04-16T18:02:25.126Z,100980.84
2019-04-16T18:05:12.789Z,100979.64
2019-04-16T18:07:54.445Z,100982.37
2019-04-16T18:10:42.431Z,100987.55
2019-04-16T18:13:25.144Z,100992.80
2019-04-16T18:15:59.671Z,100993.03
2019-04-16T18:18:40.453Z,100995.84
2019-04-16T18:21:22.738Z,100997.54
2019-04-16T18:24:01.843Z,100998.98
2019-04-16T18:26:47.377Z,101009.31
2019-04-16T18:29:23.708Z,101010.97
2019-04-16T18:31:56.546Z,101010.95
2019-04-16T18:34:50.658Z,101019.28
2019-04-16T18:37:37.447Z,101023.98
2019-04-16T18:40:34.304Z,101024.20
2019-04-16T18:43:26.908Z,101030.83
2019-04-16T18:46:17.628Z,101031.13
2019-04-16T18:48:45.984Z,101036.75
2019-04-16T18:51:34.493Z,101043.09
2019-04-16T18:54:02.711Z,101039.65
2019-04-16T18:56:29.958Z,101045.82
2019-04-16T18:58:57.137Z,101055.51
2019-04-16T19:01:29.680Z,101059.35
2019-04-16T19:03:56.674Z,101058.74
2019-04-16T19:06:23.999Z,101062.50
2019-04-16T19:08:51.451Z,101068.63
2019-04-16T19:11:20.491Z,101069.72
2019-04-16T19:13:48.265Z,101072.52
2019-04-16T19:16:15.723Z,101074.58
2019-04-16T19:18:42.870Z,101077.67
2019-04-16T19:21:10.342Z,101077.40
2019-04-16T19:23:39.476Z,101088.00
2019-04-16T19:26:08.322Z,101090.86
2019-04-16T19:28:36.261Z,101091.40
2019-04-16T19:31:04.956Z,101093.72
2019-04-16T19:33:37.791Z,101095.97
2019-04-16T19:36:01.238Z,101099.91
2019-04-16T19:38:28.468Z,101104.27
2019-04-16T19:40:55.806Z,101105.73
2019-04-16T19:43:23.086Z,101106.02
2019-04-16T19:45:50.202Z,101104.80
2019-04-16T19:48:34.233Z,101112.98
2019-04-16T19:50:47.902Z,101110.86
2019-04-16T19:53:15.174Z,101114.09
2019-04-16T19:55:45.611Z,101114.81
2019-04-16T19:58:12.975Z,101116.59
2019-04-16T20:00:40.438Z,101119.33
2019-04-16T20:03:07.685Z,101124.52
2019-04-16T20:05:34.994Z,101121.60
2019-04-16T20:08:02.920Z,101124.91
2019-04-16T20:10:40.593Z,101126.12
2019-04-16T20:13:09.274Z,101131.41
2019-04-16T20:15:36.562Z,101126.43
2019-04-16T20:18:06.295Z,101130.76
2019-04-16T20:20:34.760Z,101134.77
2019-04-16T20:23:01.769Z,101128.69
2019-04-16T20:25:28.922Z,101141.19
2019-04-16T20:27:56.101Z,101139.84
2019-04-16T20:30:25.075Z,101152.47
2019-04-16T20:32:52.135Z,101147.88
2019-04-16T20:35:19.685Z,101152.28
2019-04-16T20:37:46.700Z,101145.60
2019-04-16T20:40:14.610Z,101152.47
2019-04-16T20:42:42.811Z,101154.34
2019-04-16T20:45:11.380Z,101149.18
2019-04-16T20:47:40.008Z,101148.97
2019-04-16T20:50:08.790Z,101160.14
2019-04-16T20:52:36.108Z,101157.33
2019-04-16T20:55:04.065Z,101157.12
2019-04-16T20:57:31.538Z,101154.19
2019-04-16T20:59:58.986Z,101158.31
2019-04-16T21:02:28.298Z,101156.81
2019-04-16T21:04:58.257Z,101158.44
2019-04-16T21:07:25.345Z,101161.66
2019-04-16T21:09:52.603Z,101159.25
2019-04-16T21:12:19.752Z,101160.34
2019-04-16T21:14:47.254Z,101167.39
2019-04-16T21:17:14.690Z,101164.52
2019-04-16T21:19:48.039Z,101168.00
2019-04-16T21:22:16.598Z,101072.69
2019-04-16T21:24:45.395Z,101171.06
2019-04-16T21:27:12.931Z,101171.83
2019-04-16T21:29:40.004Z,101175.83
2019-04-16T21:32:10.774Z,101175.03
2019-04-16T21:34:49.592Z,101182.78
2019-04-16T21:37:38.789Z,101182.27
2019-04-16T21:40:05.883Z,101184.84
2019-04-16T21:42:34.849Z,101190.22
2019-04-16T21:45:02.273Z,101195.30
2019-04-16T21:47:29.409Z,101195.50
2019-04-16T21:49:56.943Z,101195.64
2019-04-16T21:52:24.037Z,101201.35
2019-04-16T21:54:51.103Z,101203.77
2019-04-16T21:57:18.129Z,101218.47
2019-04-16T21:59:45.229Z,101221.84
2019-04-16T22:02:38.936Z,101228.89
2019-04-16T22:05:07.810Z,101233.86
2019-04-16T22:07:34.839Z,101230.60
2019-04-16T22:10:02.156Z,101227.52
2019-04-16T22:12:29.100Z,101235.34
2019-04-16T22:14:56.239Z,101236.20
2019-04-16T22:17:23.593Z,101244.22
2019-04-16T22:19:54.507Z,101240.28
2019-04-16T22:22:20.475Z,101243.09
2019-04-16T22:24:47.694Z,101237.59
2019-04-16T22:27:14.701Z,101234.91
2019-04-16T22:29:47.260Z,101237.50
2019-04-16T22:32:11.225Z,101239.84
2019-04-16T22:34:39.334Z,101251.00
2019-04-16T22:37:06.422Z,101257.00
2019-04-16T22:39:39.947Z,101254.51
2019-04-16T22:42:29.595Z,101252.28
2019-04-16T22:45:21.827Z,101259.97
2019-04-16T22:47:48.874Z,101260.20
2019-04-16T22:50:17.271Z,101255.92
2019-04-16T22:52:46.016Z,101255.41
2019-04-16T22:55:13.410Z,101257.70
2019-04-16T22:57:40.481Z,101258.14
2019-04-16T23:00:16.482Z,101262.02
2019-04-16T23:02:47.844Z,101264.19
2019-04-16T23:05:12.777Z,101266.61
2019-04-16T23:07:40.374Z,101268.42
2019-04-16T23:10:07.517Z,101268.33
2019-04-16T23:12:34.550Z,101264.33
2019-04-16T23:15:01.578Z,101267.70
2019-04-16T23:17:29.290Z,101257.63
2019-04-16T23:19:56.414Z,101272.06
2019-04-16T23:22:23.617Z,101273.01
2019-04-16T23:24:51.829Z,101275.92
2019-04-16T23:27:19.814Z,101274.49
2019-04-16T23:29:47.620Z,101278.81
2019-04-16T23:32:15.328Z,101274.41
2019-04-16T23:34:42.323Z,101282.58
2019-04-16T23:37:09.429Z,101272.89
2019-04-16T23:39:37.633Z,101275.54
2019-04-16T23:42:04.849Z,101270.80
2019-04-16T23:45:00.935Z,101275.65
2019-04-16T23:47:42.073Z,101271.69
2019-04-16T23:50:22.837Z,101269.38
2019-04-16T23:52:58.404Z,101275.42
2019-04-16T23:55:50.022Z,101272.70
2019-04-16T23:58:31.052Z,101278.33
